createdAt,value
2022-11-15T00:01:18.086Z,100764.31
2022-11-15T00:04:19.664Z,100766.09
2022-11-15T00:07:48.407Z,100763.44
2022-11-15T00:10:43.672Z,100765.16
2022-11-15T00:13:45.179Z,100761.56
2022-11-15T00:16:46.999Z,100758.00
2022-11-15T00:19:48.492Z,100775.59
2022-11-15T00:22:50.048Z,100766.81
2022-11-15T00:25:59.037Z,100754.44
2022-11-15T00:29:00.568Z,100751.69
2022-11-15T00:32:02.140Z,100748.19
2022-11-15T00:35:04.062Z,100748.19
2022-11-15T00:38:05.615Z,100753.47
2022-11-15T00:41:09.858Z,100750.94
2022-11-15T00:44:11.736Z,100757.13
2022-11-15T00:47:13.271Z,100756.47
2022-11-15T00:50:15.550Z,100753.00
2022-11-15T00:53:17.803Z,100761.13
2022-11-15T00:56:19.371Z,100761.25
2022-11-15T00:59:20.887Z,100765.81
2022-11-15T01:02:22.421Z,100768.56
2022-11-15T01:05:24.235Z,100766.81
2022-11-15T01:08:26.117Z,100761.69
2022-11-15T01:11:27.662Z,100768.03
2022-11-15T01:14:29.186Z,100770.72
2022-11-15T01:17:31.818Z,100763.78
2022-11-15T01:20:33.363Z,100756.00
2022-11-15T01:23:35.179Z,100755.22
2022-11-15T01:26:36.824Z,100743.88
2022-11-15T01:29:39.575Z,100744.75
2022-11-15T01:32:41.104Z,100750.09
2022-11-15T01:35:42.727Z,100746.63
2022-11-15T01:38:44.288Z,100746.63
2022-11-15T01:41:46.054Z,100736.88
2022-11-15T01:44:52.642Z,100748.31
2022-11-15T01:47:55.881Z,100740.47
2022-11-15T01:50:58.215Z,100736.97
2022-11-15T01:54:07.735Z,100740.53
2022-11-15T01:57:12.304Z,100723.88
2022-11-15T02:00:15.463Z,100709.91
2022-11-15T02:03:17.511Z,100707.50
2022-11-15T02:06:21.185Z,100707.72
2022-11-15T02:09:22.720Z,100702.72
2022-11-15T02:12:24.358Z,100694.19
2022-11-15T02:15:30.839Z,100694.50
2022-11-15T02:18:39.129Z,100691.13
2022-11-15T02:21:46.529Z,100691.38
2022-11-15T02:25:12.802Z,100689.88
2022-11-15T02:28:17.034Z,100683.03
2022-11-15T02:31:18.539Z,100691.13
2022-11-15T02:34:29.025Z,100690.41
2022-11-15T02:37:58.355Z,100681.84
2022-11-15T02:41:11.951Z,100679.56
2022-11-15T02:44:24.858Z,100681.66
2022-11-15T02:47:31.187Z,100677.47
2022-11-15T02:50:34.260Z,100694.22
2022-11-15T02:53:35.950Z,100691.50
2022-11-15T02:56:37.631Z,100690.34
2022-11-15T03:00:08.536Z,100684.78
2022-11-15T03:03:51.904Z,100694.97
2022-11-15T03:07:09.168Z,100686.75
2022-11-15T03:10:18.934Z,100688.16
2022-11-15T03:13:44.154Z,100683.44
2022-11-15T03:17:17.407Z,100687.50
2022-11-15T03:20:20.318Z,100680.97
2022-11-15T03:23:21.875Z,100676.31
2022-11-15T03:26:25.035Z,100680.44
2022-11-15T03:29:34.622Z,100682.75
2022-11-15T03:32:41.251Z,100685.88
2022-11-15T03:35:45.698Z,100682.97
2022-11-15T03:38:47.285Z,100681.75
2022-11-15T03:41:58.002Z,100681.44
2022-11-15T03:45:18.989Z,100671.47
2022-11-15T03:48:27.764Z,100679.13
2022-11-15T03:51:30.692Z,100670.84
2022-11-15T03:54:32.478Z,100677.72
2022-11-15T03:57:34.055Z,100673.03
2022-11-15T04:00:35.633Z,100670.16
2022-11-15T04:03:37.188Z,100670.81
2022-11-15T04:06:38.857Z,100661.81
2022-11-15T04:10:00.359Z,100670.50
2022-11-15T04:13:03.764Z,100658.81
2022-11-15T04:16:05.360Z,100656.00
2022-11-15T04:19:25.632Z,100663.78
2022-11-15T04:22:45.426Z,100661.91
2022-11-15T04:25:53.701Z,100659.16
2022-11-15T04:29:13.796Z,100665.16
2022-11-15T04:32:15.295Z,100659.84
2022-11-15T04:35:16.835Z,100663.38
2022-11-15T04:38:18.379Z,100668.56
2022-11-15T04:41:19.910Z,100665.06
2022-11-15T04:44:21.410Z,100666.69
2022-11-15T04:47:23.024Z,100661.31
2022-11-15T04:50:24.523Z,100658.59
2022-11-15T04:53:26.048Z,100664.66
2022-11-15T04:56:27.596Z,100656.69
2022-11-15T04:59:29.134Z,100657.47
2022-11-15T05:02:50.610Z,100663.56
2022-11-15T05:05:52.244Z,100659.03
2022-11-15T05:08:54.171Z,100661.41
2022-11-15T05:11:55.699Z,100659.38
2022-11-15T05:14:57.194Z,100660.06
2022-11-15T05:18:00.940Z,100665.09
2022-11-15T05:21:06.922Z,100652.53
2022-11-15T05:24:11.140Z,100653.22
2022-11-15T05:27:12.672Z,100656.63
2022-11-15T05:30:14.542Z,100662.63
2022-11-15T05:33:16.221Z,100654.59
2022-11-15T05:36:21.228Z,100665.94
2022-11-15T05:39:22.961Z,100657.06
2022-11-15T05:42:27.807Z,100656.03
2022-11-15T05:45:29.924Z,100647.91
2022-11-15T05:48:32.483Z,100654.75
2022-11-15T05:51:34.684Z,100645.59
2022-11-15T05:54:37.913Z,100644.47
2022-11-15T05:57:39.512Z,100639.94
2022-11-15T06:00:41.195Z,100640.63
2022-11-15T06:03:42.828Z,100635.22
2022-11-15T06:06:44.434Z,100644.78
2022-11-15T06:09:45.968Z,100640.25
2022-11-15T06:12:47.561Z,100639.31
2022-11-15T06:15:49.279Z,100647.97
2022-11-15T06:18:50.847Z,100647.00
2022-11-15T06:21:52.371Z,100654.88
2022-11-15T06:24:53.897Z,100661.69
2022-11-15T06:27:56.953Z,100658.69
2022-11-15T06:31:11.952Z,100658.31
2022-11-15T06:34:13.502Z,100653.66
2022-11-15T06:37:15.057Z,100655.16
2022-11-15T06:40:17.007Z,100654.06
2022-11-15T06:43:18.586Z,100655.75
2022-11-15T06:46:20.195Z,100661.84
2022-11-15T06:49:21.744Z,100658.97
2022-11-15T06:52:23.285Z,100662.47
2022-11-15T06:55:24.879Z,100665.06
2022-11-15T06:58:26.390Z,100665.06
2022-11-15T07:01:27.974Z,100675.69
2022-11-15T07:04:29.554Z,100676.50
2022-11-15T07:07:31.140Z,100675.56
2022-11-15T07:10:32.701Z,100678.13
2022-11-15T07:13:35.872Z,100680.69
2022-11-15T07:16:38.160Z,100676.25
2022-11-15T07:19:39.692Z,100685.16
2022-11-15T07:22:42.246Z,100679.84
2022-11-15T07:25:43.809Z,100684.22
2022-11-15T07:28:45.591Z,100681.47
2022-11-15T07:31:47.156Z,100678.91
2022-11-15T07:34:48.960Z,100679.84
2022-11-15T07:38:03.607Z,100680.00
2022-11-15T07:41:06.412Z,100680.13
2022-11-15T07:44:07.987Z,100679.25
2022-11-15T07:47:09.488Z,100680.97
2022-11-15T07:50:11.040Z,100678.22
2022-11-15T07:53:12.587Z,100677.19
2022-11-15T07:56:14.484Z,100683.25
2022-11-15T07:59:16.027Z,100692.72
2022-11-15T08:02:18.863Z,100686.31
2022-11-15T08:05:20.518Z,100691.34
2022-11-15T08:08:23.151Z,100686.59
2022-11-15T08:11:24.713Z,100688.13
2022-11-15T08:14:26.309Z,100693.19
2022-11-15T08:17:28.384Z,100689.38
2022-11-15T08:20:31.016Z,100686.44
2022-11-15T08:23:33.354Z,100672.88
2022-11-15T08:26:35.031Z,100675.25
2022-11-15T08:29:37.043Z,100678.41
2022-11-15T08:32:38.735Z,100677.06
2022-11-15T08:35:42.357Z,100675.84
2022-11-15T08:38:44.338Z,100671.84
2022-11-15T08:41:45.919Z,100674.97
2022-11-15T08:44:47.506Z,100669.28
2022-11-15T08:47:53.943Z,100676.84
2022-11-15T08:50:57.336Z,100674.47
2022-11-15T08:53:59.070Z,100676.97
2022-11-15T08:57:00.621Z,100679.50
2022-11-15T09:00:02.277Z,100682.16
2022-11-15T09:03:07.524Z,100679.38
2022-11-15T09:06:10.205Z,100681.97
2022-11-15T09:09:11.782Z,100684.50
2022-11-15T09:12:13.545Z,100689.53
2022-11-15T09:15:16.669Z,100676.91
2022-11-15T09:18:18.227Z,100677.53
2022-11-15T09:21:19.751Z,100673.75
2022-11-15T09:24:22.163Z,100675.16
2022-11-15T09:27:24.153Z,100674.75
2022-11-15T09:30:26.410Z,100683.28
2022-11-15T09:33:28.922Z,100674.06
2022-11-15T09:36:30.788Z,100675.34
2022-11-15T09:39:32.348Z,100673.97
2022-11-15T09:42:52.274Z,100667.09
2022-11-15T09:46:17.482Z,100674.47
2022-11-15T09:49:19.595Z,100670.44
2022-11-15T09:52:22.860Z,100673.41
2022-11-15T09:55:50.058Z,100676.41
2022-11-15T09:59:09.139Z,100677.81
2022-11-15T10:02:41.285Z,100670.34
2022-11-15T10:05:51.530Z,100665.56
2022-11-15T10:09:23.999Z,100662.69
2022-11-15T10:12:28.199Z,100663.25
2022-11-15T10:15:30.047Z,100657.41
2022-11-15T10:18:40.511Z,100650.56
2022-11-15T10:21:42.048Z,100646.16
2022-11-15T10:24:45.398Z,100650.66
2022-11-15T10:27:55.256Z,100635.38
2022-11-15T10:31:05.624Z,100629.75
2022-11-15T10:34:20.173Z,100627.81
2022-11-15T10:37:32.812Z,100630.69
2022-11-15T10:40:35.426Z,100623.72
2022-11-15T10:43:36.976Z,100623.28
2022-11-15T10:46:48.355Z,100629.13
2022-11-15T10:50:29.875Z,100630.81
2022-11-15T10:53:39.859Z,100621.00
2022-11-15T10:56:43.431Z,100621.00
2022-11-15T10:59:52.671Z,100613.13
2022-11-15T11:02:58.943Z,100605.09
2022-11-15T11:06:13.350Z,100601.59
2022-11-15T11:09:34.694Z,100585.09
2022-11-15T11:12:36.447Z,100596.16
2022-11-15T11:15:38.695Z,100586.09
2022-11-15T11:19:11.555Z,100583.09
2022-11-15T11:22:13.070Z,100579.94
2022-11-15T11:25:23.284Z,100567.81
2022-11-15T11:28:51.984Z,100580.09
2022-11-15T11:32:17.897Z,100572.94
2022-11-15T11:35:36.810Z,100573.06
2022-11-15T11:38:38.335Z,100576.09
2022-11-15T11:42:04.404Z,100566.16
2022-11-15T11:45:14.818Z,100560.69
2022-11-15T11:48:55.509Z,100551.56
2022-11-15T11:52:02.138Z,100549.75
2022-11-15T11:55:06.846Z,100550.22
2022-11-15T11:58:17.235Z,100544.28
2022-11-15T12:01:35.539Z,100543.56
2022-11-15T12:04:41.688Z,100547.56
2022-11-15T12:07:46.996Z,100544.66
2022-11-15T12:10:55.339Z,100537.34
2022-11-15T12:14:09.228Z,100541.22
2022-11-15T12:17:12.921Z,100544.34
2022-11-15T12:20:30.533Z,100546.66
2022-11-15T12:23:53.450Z,100542.00
2022-11-15T12:27:12.797Z,100548.94
2022-11-15T12:30:18.256Z,100540.09
2022-11-15T12:33:34.950Z,100532.78
2022-11-15T12:36:41.772Z,100534.75
2022-11-15T12:40:11.359Z,100525.00
2022-11-15T12:43:16.026Z,100522.44
2022-11-15T12:46:40.840Z,100519.78
2022-11-15T12:49:42.305Z,100515.63
2022-11-15T12:53:25.459Z,100515.38
2022-11-15T12:56:27.070Z,100500.44
2022-11-15T12:59:50.222Z,100500.06
2022-11-15T13:03:18.759Z,100498.78
2022-11-15T13:06:41.870Z,100493.78
2022-11-15T13:09:43.384Z,100493.38
2022-11-15T13:12:44.844Z,100490.09
2022-11-15T13:15:57.051Z,100485.00
2022-11-15T13:19:00.385Z,100486.34
2022-11-15T13:22:28.379Z,100482.47
2022-11-15T13:25:54.563Z,100486.00
2022-11-15T13:28:57.335Z,100476.19
2022-11-15T13:31:58.918Z,100476.44
2022-11-15T13:35:01.735Z,100482.16
2022-11-15T13:38:05.988Z,100485.06
2022-11-15T13:41:21.337Z,100483.50
2022-11-15T13:44:32.158Z,100474.06
2022-11-15T13:47:34.010Z,100472.47
2022-11-15T13:50:39.723Z,100479.66
2022-11-15T13:53:47.588Z,100479.66
2022-11-15T13:56:56.902Z,100475.53
2022-11-15T14:00:06.678Z,100474.69
2022-11-15T14:03:15.250Z,100472.13
2022-11-15T14:06:20.361Z,100475.78
2022-11-15T14:09:34.173Z,100472.25
2022-11-15T14:12:36.764Z,100472.41
2022-11-15T14:15:39.832Z,100468.72
2022-11-15T14:18:44.351Z,100466.31
2022-11-15T14:22:18.573Z,100463.78
2022-11-15T14:25:22.941Z,100464.72
2022-11-15T14:28:24.459Z,100457.00
2022-11-15T14:31:26.059Z,100448.34
2022-11-15T14:34:27.606Z,100451.25
2022-11-15T14:37:35.636Z,100449.81
2022-11-15T14:40:37.198Z,100452.00
2022-11-15T14:43:38.706Z,100453.97
2022-11-15T14:46:40.318Z,100450.56
2022-11-15T14:49:42.408Z,100458.09
2022-11-15T14:52:44.643Z,100450.34
2022-11-15T14:55:46.249Z,100450.56
2022-11-15T14:58:47.837Z,100435.78
2022-11-15T15:01:49.392Z,100438.69
2022-11-15T15:04:51.334Z,100438.19
2022-11-15T15:07:54.287Z,100429.22
2022-11-15T15:10:56.031Z,100428.09
2022-11-15T15:13:59.279Z,100430.50
2022-11-15T15:17:00.839Z,100430.41
2022-11-15T15:20:02.364Z,100424.34
2022-11-15T15:23:03.914Z,100427.78
2022-11-15T15:26:05.451Z,100423.44
2022-11-15T15:29:07.666Z,100415.41
2022-11-15T15:32:10.130Z,100411.56
2022-11-15T15:35:15.369Z,100422.81
2022-11-15T15:38:16.970Z,100417.88
2022-11-15T15:41:18.577Z,100413.56
2022-11-15T15:44:20.150Z,100413.31
2022-11-15T15:47:23.603Z,100412.94
2022-11-15T15:50:25.116Z,100405.53
2022-11-15T15:53:26.652Z,100403.47
2022-11-15T15:56:29.161Z,100395.19
2022-11-15T15:59:30.788Z,100397.63
2022-11-15T16:02:36.230Z,100393.81
2022-11-15T16:05:41.233Z,100392.59
2022-11-15T16:09:08.172Z,100382.28
2022-11-15T16:12:04.343Z,100384.44
2022-11-15T16:15:06.362Z,100377.53
2022-11-15T16:18:13.768Z,100373.53
2022-11-15T16:21:15.327Z,100369.50
2022-11-15T16:24:16.885Z,100373.38
2022-11-15T16:27:21.149Z,100373.59
2022-11-15T16:30:24.460Z,100376.59
2022-11-15T16:33:26.624Z,100373.44
2022-11-15T16:36:31.229Z,100364.06
2022-11-15T16:39:33.498Z,100360.00
2022-11-15T16:42:35.015Z,100356.03
2022-11-15T16:45:36.621Z,100351.78
2022-11-15T16:48:38.221Z,100347.41
2022-11-15T16:51:41.672Z,100344.00
2022-11-15T16:54:43.449Z,100346.78
2022-11-15T16:57:45.281Z,100358.38
2022-11-15T17:00:51.667Z,100355.72
2022-11-15T17:03:54.210Z,100357.53
2022-11-15T17:06:56.412Z,100355.72
2022-11-15T17:09:58.177Z,100356.59
2022-11-15T17:12:59.749Z,100352.94
2022-11-15T17:16:06.685Z,100347.63
2022-11-15T17:19:19.846Z,100344.00
2022-11-15T17:22:21.559Z,100338.81
2022-11-15T17:25:23.165Z,100342.41
2022-11-15T17:28:24.780Z,100333.47
2022-11-15T17:31:27.056Z,100336.03
2022-11-15T17:34:28.626Z,100336.03
2022-11-15T17:37:30.148Z,100332.41
2022-11-15T17:40:31.741Z,100335.91
2022-11-15T17:43:34.186Z,100326.97
2022-11-15T17:46:36.466Z,100325.25
2022-11-15T17:49:40.792Z,100322.59
2022-11-15T17:52:42.419Z,100312.78
2022-11-15T17:55:43.980Z,100311.84
2022-11-15T17:58:53.568Z,100305.53
2022-11-15T18:01:55.251Z,100301.94
2022-11-15T18:04:56.803Z,100305.31
2022-11-15T18:07:58.384Z,100292.94
2022-11-15T18:11:32.942Z,100296.38
2022-11-15T18:14:35.238Z,100297.19
2022-11-15T18:17:37.376Z,100298.06
2022-11-15T18:20:38.919Z,100291.88
2022-11-15T18:23:41.803Z,100292.72
2022-11-15T18:26:43.387Z,100296.97
2022-11-15T18:29:45.079Z,100304.09
2022-11-15T18:32:46.942Z,100303.16
2022-11-15T18:35:48.671Z,100296.03
2022-11-15T18:38:57.984Z,100291.56
2022-11-15T18:41:59.602Z,100288.91
2022-11-15T18:45:01.805Z,100279.19
2022-11-15T18:48:03.539Z,100257.03
2022-11-15T18:51:07.193Z,100264.72
2022-11-15T18:54:14.087Z,100260.97
2022-11-15T18:57:15.655Z,100258.06
2022-11-15T19:00:17.939Z,100257.84
2022-11-15T19:03:23.731Z,100265.63
2022-11-15T19:06:29.150Z,100272.53
2022-11-15T19:09:32.700Z,100272.53
2022-11-15T19:12:34.299Z,100266.22
2022-11-15T19:15:35.835Z,100266.22
2022-11-15T19:18:37.425Z,100272.53
2022-11-15T19:21:39.139Z,100261.97
2022-11-15T19:24:40.956Z,100255.81
2022-11-15T19:27:42.484Z,100255.81
2022-11-15T19:30:44.086Z,100255.81
2022-11-15T19:33:46.181Z,100252.28
2022-11-15T19:36:47.712Z,100248.91
2022-11-15T19:39:49.568Z,100256.03
2022-11-15T19:42:51.107Z,100250.09
2022-11-15T19:45:58.016Z,100249.38
2022-11-15T19:49:02.603Z,100250.22
2022-11-15T19:52:04.446Z,100244.91
2022-11-15T19:55:06.563Z,100245.97
2022-11-15T19:58:08.269Z,100243.41
2022-11-15T20:01:20.239Z,100239.06
2022-11-15T20:04:22.292Z,100230.31
2022-11-15T20:07:23.848Z,100236.47
2022-11-15T20:10:25.501Z,100234.78
2022-11-15T20:13:27.891Z,100234.88
2022-11-15T20:16:29.800Z,100230.56
2022-11-15T20:19:31.454Z,100228.00
2022-11-15T20:22:33.024Z,100222.78
2022-11-15T20:25:38.008Z,100223.66
2022-11-15T20:28:40.457Z,100219.28
2022-11-15T20:31:41.995Z,100220.13
2022-11-15T20:34:43.501Z,100212.28
2022-11-15T20:37:45.719Z,100219.41
2022-11-15T20:40:48.756Z,100216.75
2022-11-15T20:43:50.393Z,100211.41
2022-11-15T20:46:51.939Z,100200.78
2022-11-15T20:49:55.523Z,100209.72
2022-11-15T20:52:59.867Z,100200.03
2022-11-15T20:56:10.875Z,100198.25
2022-11-15T20:59:12.444Z,100198.25
2022-11-15T21:02:15.178Z,100197.47
2022-11-15T21:05:16.960Z,100190.59
2022-11-15T21:08:18.486Z,100188.78
2022-11-15T21:11:39.364Z,100183.44
2022-11-15T21:14:41.714Z,100174.75
2022-11-15T21:17:43.287Z,100179.09
2022-11-15T21:20:44.982Z,100175.47
2022-11-15T21:23:46.518Z,100176.31
2022-11-15T21:26:48.042Z,100174.59
2022-11-15T21:29:49.646Z,100176.44
2022-11-15T21:32:51.163Z,100171.94
2022-11-15T21:35:56.222Z,100169.41
2022-11-15T21:38:57.825Z,100168.47
2022-11-15T21:41:59.360Z,100167.47
2022-11-15T21:45:00.901Z,100163.00
2022-11-15T21:48:02.448Z,100153.81
2022-11-15T21:51:10.061Z,100154.53
2022-11-15T21:54:11.632Z,100146.44
2022-11-15T21:57:13.197Z,100156.00
2022-11-15T22:00:34.124Z,100149.84
2022-11-15T22:03:36.459Z,100143.66
2022-11-15T22:06:38.482Z,100143.66
2022-11-15T22:09:40.321Z,100140.28
2022-11-15T22:12:41.872Z,100139.41
2022-11-15T22:15:46.453Z,100134.09
2022-11-15T22:18:48.209Z,100136.75
2022-11-15T22:21:49.787Z,100132.41
2022-11-15T22:24:51.393Z,100125.25
2022-11-15T22:27:53.458Z,100127.91
2022-11-15T22:30:55.532Z,100118.25
2022-11-15T22:33:57.112Z,100117.28
2022-11-15T22:37:19.979Z,100112.81
2022-11-15T22:40:20.220Z,100111.00
2022-11-15T22:43:23.676Z,100103.84
2022-11-15T22:46:25.325Z,100106.53
2022-11-15T22:49:27.019Z,100111.84
2022-11-15T22:52:28.576Z,100104.81
2022-11-15T22:55:30.136Z,100098.53
2022-11-15T22:58:33.358Z,100110.03
2022-11-15T23:01:35.296Z,100105.66
2022-11-15T23:04:36.840Z,100100.34
2022-11-15T23:07:38.589Z,100095.88
2022-11-15T23:10:59.141Z,100102.16
2022-11-15T23:14:00.924Z,100106.75
2022-11-15T23:17:02.507Z,100099.19
2022-11-15T23:20:22.335Z,100094.81
2022-11-15T23:23:26.242Z,100088.66
2022-11-15T23:26:27.790Z,100091.56
2022-11-15T23:29:30.261Z,100093.56
2022-11-15T23:33:10.374Z,100087.53
2022-11-15T23:36:11.950Z,100081.47
2022-11-15T23:39:13.559Z,100079.78
2022-11-15T23:42:19.727Z,100085.09
2022-11-15T23:45:21.826Z,100074.56
2022-11-15T23:48:23.519Z,100071.06
2022-11-15T23:51:25.379Z,100072.03
2022-11-15T23:54:26.950Z,100072.03
2022-11-15T23:57:28.562Z,100057.88
